createdAt,value
2018-11-23T00:01:36.585Z,3.70
2018-11-23T00:04:04.801Z,3.70
2018-11-23T00:06:32.868Z,3.70
2018-11-23T00:09:00.958Z,3.70
2018-11-23T00:11:28.789Z,3.60
2018-11-23T00:13:57.252Z,3.60
2018-11-23T00:16:25.184Z,3.60
2018-11-23T00:18:53.127Z,3.60
2018-11-23T00:21:21.158Z,3.60
2018-11-23T00:23:49.067Z,3.60
2018-11-23T00:26:16.999Z,3.60
2018-11-23T00:28:45.143Z,3.50
2018-11-23T00:31:13.013Z,3.60
2018-11-23T00:33:41.161Z,3.60
2018-11-23T00:36:09.549Z,3.60
2018-11-23T00:38:37.494Z,3.60
2018-11-23T00:41:06.565Z,3.60
2018-11-23T00:43:34.448Z,3.60
2018-11-23T00:46:02.277Z,3.50
2018-11-23T00:48:30.106Z,3.60
2018-11-23T00:50:58.105Z,3.50
2018-11-23T00:53:26.111Z,3.50
2018-11-23T00:55:54.128Z,3.50
2018-11-23T00:58:22.675Z,3.60
2018-11-23T01:00:51.082Z,3.50
2018-11-23T01:03:18.972Z,3.50
2018-11-23T01:05:47.528Z,3.50
2018-11-23T01:08:15.441Z,3.50
2018-11-23T01:10:43.325Z,3.50
2018-11-23T01:13:11.257Z,3.50
2018-11-23T01:15:39.405Z,3.50
2018-11-23T01:18:07.375Z,3.50
2018-11-23T01:20:35.330Z,3.50
2018-11-23T01:23:03.241Z,3.50
2018-11-23T01:25:31.093Z,3.40
2018-11-23T01:27:58.936Z,3.50
2018-11-23T01:30:30.158Z,3.50
2018-11-23T01:32:58.070Z,3.60
2018-11-23T01:35:26.114Z,3.60
2018-11-23T01:37:54.070Z,3.60
2018-11-23T01:40:23.240Z,3.50
2018-11-23T01:42:51.415Z,3.60
2018-11-23T01:45:19.403Z,3.60
2018-11-23T01:47:47.322Z,3.60
2018-11-23T01:50:17.591Z,3.60
2018-11-23T01:52:46.807Z,3.60
2018-11-23T01:55:15.664Z,3.50
2018-11-23T01:57:43.972Z,3.60
2018-11-23T02:00:15.627Z,3.60
2018-11-23T02:02:43.892Z,3.60
2018-11-23T02:05:12.089Z,3.60
2018-11-23T02:07:40.273Z,3.60
2018-11-23T02:10:09.563Z,3.50
2018-11-23T02:12:50.009Z,3.60
2018-11-23T02:15:18.998Z,3.50
2018-11-23T02:17:47.616Z,3.50
2018-11-23T02:20:16.627Z,3.50
2018-11-23T02:22:44.174Z,3.60
2018-11-23T02:25:11.790Z,3.60
2018-11-23T02:27:39.408Z,3.60
2018-11-23T02:30:09.733Z,3.70
2018-11-23T02:32:37.242Z,3.60
2018-11-23T02:35:05.445Z,3.60
2018-11-23T02:37:32.969Z,3.60
2018-11-23T02:40:00.465Z,3.50
2018-11-23T02:42:28.030Z,3.60
2018-11-23T02:44:55.587Z,3.50
2018-11-23T02:47:23.102Z,3.50
2018-11-23T02:49:50.606Z,3.60
2018-11-23T02:52:18.155Z,3.60
2018-11-23T02:54:46.532Z,3.60
2018-11-23T02:57:14.669Z,3.70
2018-11-23T02:59:42.179Z,3.70
2018-11-23T03:02:09.674Z,3.70
2018-11-23T03:04:37.235Z,3.70
2018-11-23T03:07:06.124Z,3.70
2018-11-23T03:09:33.610Z,3.70
2018-11-23T03:12:01.175Z,3.70
2018-11-23T03:14:28.812Z,3.70
2018-11-23T03:16:56.380Z,3.70
2018-11-23T03:19:23.946Z,3.70
2018-11-23T03:21:51.481Z,3.60
2018-11-23T03:24:19.720Z,3.60
2018-11-23T03:26:47.314Z,3.50
2018-11-23T03:29:15.060Z,3.50
2018-11-23T03:31:42.624Z,3.50
2018-11-23T03:34:10.117Z,3.50
2018-11-23T03:36:37.748Z,3.40
2018-11-23T03:39:07.239Z,3.40
2018-11-23T03:41:34.890Z,3.50
2018-11-23T03:44:02.828Z,3.40
2018-11-23T03:46:30.334Z,3.40
2018-11-23T03:48:57.828Z,3.40
2018-11-23T03:51:25.342Z,3.40
2018-11-23T03:53:52.851Z,3.40
2018-11-23T03:56:20.454Z,3.40
2018-11-23T03:58:47.941Z,3.40
2018-11-23T04:01:15.481Z,3.40
2018-11-23T04:03:43.159Z,3.40
2018-11-23T04:06:10.692Z,3.40
2018-11-23T04:08:38.226Z,3.40
2018-11-23T04:11:05.820Z,3.40
2018-11-23T04:13:33.662Z,3.40
2018-11-23T04:16:01.239Z,3.50
2018-11-23T04:18:28.742Z,3.50
2018-11-23T04:20:59.205Z,3.60
2018-11-23T04:23:26.801Z,3.50
2018-11-23T04:25:54.554Z,3.50
2018-11-23T04:28:22.073Z,3.40
2018-11-23T04:30:49.623Z,3.40
2018-11-23T04:33:17.265Z,3.40
2018-11-23T04:35:44.809Z,3.40
2018-11-23T04:38:12.385Z,3.40
2018-11-23T04:40:39.820Z,3.50
2018-11-23T04:43:07.507Z,3.50
2018-11-23T04:45:35.212Z,3.40
2018-11-23T04:48:02.709Z,3.40
2018-11-23T04:50:30.207Z,3.40
2018-11-23T04:52:57.673Z,3.40
2018-11-23T04:55:25.462Z,3.30
2018-11-23T04:57:53.838Z,3.30
2018-11-23T05:00:20.466Z,3.30
2018-11-23T05:02:48.265Z,3.30
2018-11-23T05:05:15.841Z,3.40
2018-11-23T05:07:44.890Z,3.30
2018-11-23T05:10:13.678Z,3.20
2018-11-23T05:12:41.203Z,3.20
2018-11-23T05:15:10.033Z,3.30
2018-11-23T05:17:37.589Z,3.30
2018-11-23T05:20:06.020Z,3.40
2018-11-23T05:22:33.512Z,3.40
2018-11-23T05:25:01.154Z,3.40
2018-11-23T05:27:28.680Z,3.30
2018-11-23T05:29:56.182Z,3.30
2018-11-23T05:32:23.905Z,3.20
2018-11-23T05:34:51.409Z,3.20
2018-11-23T05:37:18.923Z,3.10
2018-11-23T05:39:46.461Z,3.10
2018-11-23T05:42:14.013Z,3.10
2018-11-23T05:44:41.596Z,3.00
2018-11-23T05:47:09.306Z,3.00
2018-11-23T05:49:37.420Z,2.90
2018-11-23T05:52:04.953Z,2.90
2018-11-23T05:54:32.564Z,2.90
2018-11-23T05:57:00.113Z,2.80
2018-11-23T05:59:27.652Z,2.80
2018-11-23T06:01:55.187Z,2.70
2018-11-23T06:04:22.757Z,2.70
2018-11-23T06:06:50.253Z,2.70
2018-11-23T06:09:17.834Z,2.70
2018-11-23T06:11:45.508Z,2.60
2018-11-23T06:14:13.170Z,2.80
2018-11-23T06:16:40.714Z,2.70
2018-11-23T06:19:08.256Z,2.70
2018-11-23T06:21:35.887Z,2.60
2018-11-23T06:24:04.165Z,2.60
2018-11-23T06:26:32.078Z,2.60
2018-11-23T06:28:59.845Z,2.60
2018-11-23T06:31:27.383Z,2.60
2018-11-23T06:33:54.993Z,2.50
2018-11-23T06:36:22.573Z,2.60
2018-11-23T06:38:50.140Z,2.60
2018-11-23T06:41:17.978Z,2.70
2018-11-23T06:43:46.028Z,2.60
2018-11-23T06:46:13.793Z,2.60
2018-11-23T06:48:41.417Z,2.70
2018-11-23T06:51:09.143Z,2.70
2018-11-23T06:53:36.961Z,2.70
2018-11-23T06:56:05.161Z,2.70
2018-11-23T06:58:32.902Z,2.80
2018-11-23T07:01:01.124Z,2.80
2018-11-23T07:03:28.896Z,2.80
2018-11-23T07:05:57.180Z,2.90
2018-11-23T07:08:25.196Z,2.90
2018-11-23T07:10:53.087Z,2.90
2018-11-23T07:13:20.702Z,2.90
2018-11-23T07:15:48.348Z,3.00
2018-11-23T07:18:16.030Z,3.00
2018-11-23T07:20:43.891Z,3.00
2018-11-23T07:23:11.432Z,3.10
2018-11-23T07:25:38.978Z,3.00
2018-11-23T07:28:06.583Z,3.20
2018-11-23T07:30:34.081Z,3.20
2018-11-23T07:33:01.850Z,3.20
2018-11-23T07:35:29.410Z,3.30
2018-11-23T07:37:56.968Z,3.30
2018-11-23T07:40:38.792Z,3.40
2018-11-23T07:43:06.466Z,3.50
2018-11-23T07:45:34.034Z,3.60
2018-11-23T07:48:01.658Z,3.60
2018-11-23T07:50:29.197Z,3.60
2018-11-23T07:52:56.773Z,3.60
2018-11-23T07:55:25.085Z,3.70
2018-11-23T07:57:52.850Z,3.60
2018-11-23T08:00:21.923Z,3.70
2018-11-23T08:02:49.860Z,3.70
2018-11-23T08:05:18.376Z,3.80
2018-11-23T08:07:45.949Z,3.80
2018-11-23T08:10:13.846Z,4.10
2018-11-23T08:12:42.858Z,4.10
2018-11-23T08:15:13.887Z,4.20
2018-11-23T08:17:42.042Z,4.30
2018-11-23T08:20:11.782Z,4.40
2018-11-23T08:22:39.557Z,4.30
2018-11-23T08:25:08.301Z,4.30
2018-11-23T08:27:36.283Z,4.20
2018-11-23T08:30:06.990Z,4.20
2018-11-23T08:32:34.531Z,4.20
2018-11-23T08:35:02.185Z,4.30
2018-11-23T08:37:29.738Z,4.50
2018-11-23T08:39:57.278Z,4.50
2018-11-23T08:42:24.894Z,4.50
2018-11-23T08:44:53.041Z,4.50
2018-11-23T08:47:20.706Z,4.40
2018-11-23T08:49:48.240Z,4.50
2018-11-23T08:52:15.734Z,4.50
2018-11-23T08:54:43.888Z,4.70
2018-11-23T08:57:11.384Z,4.80
2018-11-23T08:59:39.102Z,4.70
2018-11-23T09:02:06.640Z,4.80
2018-11-23T09:04:34.277Z,4.80
2018-11-23T09:07:01.882Z,4.80
2018-11-23T09:09:29.428Z,4.80
2018-11-23T09:11:57.029Z,4.80
2018-11-23T09:14:24.513Z,4.90
2018-11-23T09:16:52.090Z,5.00
2018-11-23T09:19:19.622Z,5.00
2018-11-23T09:21:47.352Z,5.10
2018-11-23T09:24:14.866Z,5.00
2018-11-23T09:26:42.373Z,5.00
2018-11-23T09:29:09.874Z,5.10
2018-11-23T09:31:37.350Z,5.10
2018-11-23T09:34:04.831Z,5.00
2018-11-23T09:36:32.383Z,5.10
2018-11-23T09:38:59.995Z,5.10
2018-11-23T09:41:27.617Z,5.10
2018-11-23T09:43:55.825Z,5.00
2018-11-23T09:46:23.400Z,5.00
2018-11-23T09:48:51.289Z,5.10
2018-11-23T09:51:18.846Z,5.10
2018-11-23T09:53:46.427Z,5.10
2018-11-23T09:56:14.036Z,5.10
2018-11-23T09:58:43.752Z,5.00
2018-11-23T10:01:09.388Z,5.10
2018-11-23T10:03:36.888Z,5.10
2018-11-23T10:06:04.448Z,5.20
2018-11-23T10:08:37.132Z,5.20
2018-11-23T10:10:59.594Z,5.20
2018-11-23T10:13:27.166Z,5.20
2018-11-23T10:15:54.674Z,5.30
2018-11-23T10:18:22.294Z,5.30
2018-11-23T10:20:49.813Z,5.30
2018-11-23T10:23:17.372Z,5.50
2018-11-23T10:25:44.994Z,5.50
2018-11-23T10:28:12.589Z,5.60
2018-11-23T10:30:40.382Z,5.60
2018-11-23T10:33:08.412Z,5.60
2018-11-23T10:35:35.947Z,5.60
2018-11-23T10:38:04.630Z,5.50
2018-11-23T10:40:34.046Z,5.70
2018-11-23T10:43:01.867Z,5.60
2018-11-23T10:45:30.805Z,5.70
2018-11-23T10:47:59.356Z,5.60
2018-11-23T10:50:29.640Z,5.60
2018-11-23T10:52:57.174Z,5.80
2018-11-23T10:55:26.433Z,5.70
2018-11-23T10:57:54.014Z,5.80
2018-11-23T11:00:27.400Z,5.80
2018-11-23T11:03:01.098Z,5.80
2018-11-23T11:05:45.418Z,5.70
2018-11-23T11:08:13.055Z,5.80
2018-11-23T11:10:40.875Z,5.80
2018-11-23T11:13:08.418Z,5.80
2018-11-23T11:15:35.897Z,5.80
2018-11-23T11:18:03.462Z,5.80
2018-11-23T11:20:31.466Z,5.80
2018-11-23T11:22:58.997Z,5.90
2018-11-23T11:25:26.664Z,5.90
2018-11-23T11:27:54.182Z,5.90
2018-11-23T11:30:21.896Z,5.90
2018-11-23T11:32:50.224Z,5.80
2018-11-23T11:35:17.774Z,5.90
2018-11-23T11:37:45.394Z,5.90
2018-11-23T11:40:14.548Z,6.00
2018-11-23T11:42:42.822Z,5.90
2018-11-23T11:45:12.160Z,5.80
2018-11-23T11:47:40.692Z,5.80
2018-11-23T11:50:09.491Z,5.80
2018-11-23T11:52:38.293Z,5.80
2018-11-23T11:55:07.209Z,5.80
2018-11-23T11:57:34.850Z,5.80
2018-11-23T12:00:02.459Z,5.80
2018-11-23T12:02:30.017Z,5.70
2018-11-23T12:04:57.503Z,5.70
2018-11-23T12:07:25.024Z,5.70
2018-11-23T12:09:52.481Z,5.80
2018-11-23T12:12:19.962Z,5.90
2018-11-23T12:14:47.558Z,6.00
2018-11-23T12:17:15.068Z,6.00
2018-11-23T12:19:42.582Z,5.90
2018-11-23T12:22:10.070Z,5.80
2018-11-23T12:24:37.560Z,5.70
2018-11-23T12:27:05.111Z,5.60
2018-11-23T12:29:32.725Z,5.50
2018-11-23T12:32:00.259Z,5.50
2018-11-23T12:34:27.742Z,5.40
2018-11-23T12:36:55.509Z,5.40
2018-11-23T12:39:23.525Z,5.40
2018-11-23T12:41:51.048Z,5.30
2018-11-23T12:44:18.662Z,5.60
2018-11-23T12:46:46.152Z,6.00
2018-11-23T12:49:13.899Z,6.00
2018-11-23T12:51:41.400Z,6.10
2018-11-23T12:54:08.950Z,6.20
2018-11-23T12:56:36.723Z,6.20
2018-11-23T12:59:04.986Z,6.10
2018-11-23T13:01:32.951Z,6.00
2018-11-23T13:04:01.104Z,5.90
2018-11-23T13:06:28.605Z,5.80
2018-11-23T13:08:56.105Z,5.40
2018-11-23T13:11:23.790Z,5.30
2018-11-23T13:13:51.313Z,5.20
2018-11-23T13:16:18.814Z,5.00
2018-11-23T13:18:46.424Z,5.10
2018-11-23T13:21:13.950Z,5.10
2018-11-23T13:23:41.436Z,5.00
2018-11-23T13:26:08.976Z,5.10
2018-11-23T13:28:36.648Z,5.10
2018-11-23T13:31:04.335Z,5.10
2018-11-23T13:33:31.951Z,5.10
2018-11-23T13:35:59.471Z,5.00
2018-11-23T13:38:27.132Z,5.00
2018-11-23T13:40:54.679Z,5.00
2018-11-23T13:43:22.448Z,5.00
2018-11-23T13:45:50.096Z,5.00
2018-11-23T13:48:20.031Z,5.00
2018-11-23T13:50:46.317Z,4.80
2018-11-23T13:53:14.024Z,4.80
2018-11-23T13:55:41.698Z,4.80
2018-11-23T13:58:09.394Z,4.80
2018-11-23T14:00:36.960Z,4.70
2018-11-23T14:03:04.831Z,4.60
2018-11-23T14:05:32.551Z,4.70
2018-11-23T14:08:01.325Z,4.60
2018-11-23T14:10:29.384Z,4.70
2018-11-23T14:12:57.351Z,4.60
2018-11-23T14:15:27.482Z,4.60
2018-11-23T14:17:56.111Z,4.50
2018-11-23T14:20:24.810Z,4.40
2018-11-23T14:22:52.929Z,4.50
2018-11-23T14:25:22.348Z,4.40
2018-11-23T14:27:50.298Z,4.30
2018-11-23T14:30:20.113Z,4.20
2018-11-23T14:32:48.014Z,4.10
2018-11-23T14:35:23.830Z,4.00
2018-11-23T14:37:52.554Z,4.00
2018-11-23T14:40:20.082Z,4.00
2018-11-23T14:42:48.846Z,3.90
2018-11-23T14:45:18.872Z,3.80
2018-11-23T14:47:46.935Z,3.90
2018-11-23T14:50:16.762Z,3.80
2018-11-23T14:52:45.876Z,3.80
2018-11-23T14:55:14.040Z,3.80
2018-11-23T14:57:42.217Z,3.80
2018-11-23T15:00:13.056Z,3.80
2018-11-23T15:02:40.827Z,3.80
2018-11-23T15:05:08.378Z,3.60
2018-11-23T15:07:36.754Z,3.70
2018-11-23T15:10:07.141Z,3.60
2018-11-23T15:12:35.381Z,3.70
2018-11-23T15:15:02.977Z,3.60
2018-11-23T15:17:30.786Z,3.60
2018-11-23T15:19:58.642Z,3.60
2018-11-23T15:22:26.392Z,3.50
2018-11-23T15:24:54.900Z,3.50
2018-11-23T15:27:22.540Z,3.50
2018-11-23T15:29:50.049Z,3.50
2018-11-23T15:32:17.597Z,3.50
2018-11-23T15:34:45.805Z,3.50
2018-11-23T15:37:13.357Z,3.50
2018-11-23T15:39:40.820Z,3.70
2018-11-23T15:42:08.879Z,3.60
2018-11-23T15:44:36.384Z,3.50
2018-11-23T15:47:04.228Z,3.50
2018-11-23T15:49:32.000Z,3.50
2018-11-23T15:51:59.484Z,3.40
2018-11-23T15:54:26.985Z,3.50
2018-11-23T15:56:54.486Z,3.60
2018-11-23T15:59:22.737Z,3.50
2018-11-23T16:01:50.205Z,3.40
2018-11-23T16:04:17.682Z,3.30
2018-11-23T16:06:45.285Z,3.30
2018-11-23T16:09:13.380Z,3.40
2018-11-23T16:11:40.999Z,3.40
2018-11-23T16:14:08.786Z,3.40
2018-11-23T16:16:36.581Z,3.40
2018-11-23T16:19:04.348Z,3.40
2018-11-23T16:21:45.060Z,3.50
2018-11-23T16:24:13.496Z,3.50
2018-11-23T16:26:41.743Z,3.50
2018-11-23T16:29:09.335Z,3.50
2018-11-23T16:31:36.898Z,3.50
2018-11-23T16:34:04.708Z,3.40
2018-11-23T16:36:32.233Z,3.40
2018-11-23T16:38:59.858Z,3.40
2018-11-23T16:41:27.412Z,3.40
2018-11-23T16:43:54.979Z,3.50
2018-11-23T16:46:22.646Z,3.40
2018-11-23T16:48:50.167Z,3.40
2018-11-23T16:51:19.053Z,3.30
2018-11-23T16:54:12.900Z,3.40
2018-11-23T16:56:45.089Z,3.30
2018-11-23T16:59:12.914Z,3.30
2018-11-23T17:01:40.694Z,3.30
2018-11-23T17:04:08.302Z,3.20
2018-11-23T17:06:35.978Z,3.20
2018-11-23T17:09:05.702Z,3.30
2018-11-23T17:11:33.257Z,3.30
2018-11-23T17:14:00.933Z,3.20
2018-11-23T17:16:28.483Z,3.20
2018-11-23T17:18:55.975Z,3.30
2018-11-23T17:21:23.516Z,3.20
2018-11-23T17:23:51.123Z,3.20
2018-11-23T17:26:18.810Z,3.20
2018-11-23T17:28:46.359Z,3.20
2018-11-23T17:31:13.957Z,3.20
2018-11-23T17:33:41.459Z,3.20
2018-11-23T17:36:08.941Z,3.10
2018-11-23T17:38:37.778Z,3.20
2018-11-23T17:41:04.617Z,3.20
2018-11-23T17:43:32.158Z,3.20
2018-11-23T17:45:59.650Z,3.10
2018-11-23T17:48:28.394Z,3.00
2018-11-23T17:50:57.112Z,3.00
2018-11-23T17:53:24.666Z,3.10
2018-11-23T17:55:52.269Z,3.00
2018-11-23T17:58:19.745Z,3.00
2018-11-23T18:00:47.789Z,2.90
2018-11-23T18:03:15.253Z,2.80
2018-11-23T18:05:42.790Z,2.80
2018-11-23T18:08:10.221Z,2.80
2018-11-23T18:10:37.814Z,2.80
2018-11-23T18:13:05.722Z,2.80
2018-11-23T18:15:34.101Z,2.80
2018-11-23T18:18:02.799Z,2.70
2018-11-23T18:20:30.920Z,2.70
2018-11-23T18:22:59.360Z,2.60
2018-11-23T18:25:29.433Z,2.60
2018-11-23T18:28:00.547Z,2.60
2018-11-23T18:30:30.214Z,2.70
2018-11-23T18:32:58.314Z,2.60
2018-11-23T18:35:27.131Z,2.60
2018-11-23T18:37:54.671Z,2.60
2018-11-23T18:40:22.536Z,2.60
2018-11-23T18:42:50.605Z,2.70
2018-11-23T18:45:18.248Z,2.60
2018-11-23T18:47:45.841Z,2.60
2018-11-23T18:50:14.634Z,2.70
2018-11-23T18:52:42.154Z,2.70
2018-11-23T18:55:17.510Z,2.60
2018-11-23T18:57:39.800Z,2.50
2018-11-23T19:00:15.834Z,2.60
2018-11-23T19:02:44.627Z,2.60
2018-11-23T19:05:14.397Z,2.60
2018-11-23T19:07:42.854Z,2.60
2018-11-23T19:10:11.667Z,2.50
2018-11-23T19:12:39.356Z,2.50
2018-11-23T19:15:09.068Z,2.50
2018-11-23T19:17:37.715Z,2.50
2018-11-23T19:20:18.449Z,2.50
2018-11-23T19:22:48.816Z,2.40
2018-11-23T19:25:16.961Z,2.40
2018-11-23T19:27:44.929Z,2.40
2018-11-23T19:30:16.708Z,2.30
2018-11-23T19:32:44.751Z,2.30
2018-11-23T19:35:12.921Z,2.40
2018-11-23T19:37:41.078Z,2.40
2018-11-23T19:40:14.205Z,2.40
2018-11-23T19:42:46.414Z,2.30
2018-11-23T19:45:15.810Z,2.30
2018-11-23T19:47:44.032Z,2.30
2018-11-23T19:50:13.968Z,2.20
2018-11-23T19:52:42.004Z,2.20
2018-11-23T19:55:11.206Z,2.20
2018-11-23T19:57:39.501Z,2.20
2018-11-23T20:00:12.497Z,2.20
2018-11-23T20:02:40.521Z,2.20
2018-11-23T20:05:08.725Z,2.30
2018-11-23T20:07:36.941Z,2.30
2018-11-23T20:10:09.061Z,2.30
2018-11-23T20:12:37.126Z,2.20
2018-11-23T20:15:07.749Z,2.10
2018-11-23T20:17:41.146Z,2.20
2018-11-23T20:20:05.296Z,2.10
2018-11-23T20:22:33.286Z,2.10
2018-11-23T20:25:01.673Z,2.10
2018-11-23T20:27:29.884Z,2.30
2018-11-23T20:29:57.902Z,2.30
2018-11-23T20:32:25.970Z,2.40
2018-11-23T20:34:54.270Z,2.40
2018-11-23T20:37:22.271Z,2.30
2018-11-23T20:39:50.172Z,2.30
2018-11-23T20:42:18.521Z,2.30
2018-11-23T20:44:46.499Z,2.20
2018-11-23T20:47:14.654Z,2.20
2018-11-23T20:49:45.899Z,2.10
2018-11-23T20:52:10.865Z,2.20
2018-11-23T20:54:38.818Z,2.20
2018-11-23T20:57:06.705Z,2.30
2018-11-23T20:59:38.955Z,2.20
2018-11-23T21:02:02.862Z,2.20
2018-11-23T21:04:30.852Z,2.20
2018-11-23T21:06:58.907Z,2.20
2018-11-23T21:09:30.998Z,2.20
2018-11-23T21:11:54.967Z,2.30
